sensor_id;sensor_type;location;lat;lon;timestamp;pressure;altitude;pressure_sealevel;temperature;humidity
84944;BME280;75231;53.650;9.788;2024-03-29T00:02:12;99481.63;;;8.19;78.53
84944;BME280;75231;53.650;9.788;2024-03-29T00:04:38;99477.41;;;8.18;78.03
84944;BME280;75231;53.650;9.788;2024-03-29T00:07:03;99477.41;;;8.18;78.55
84944;BME280;75231;53.650;9.788;2024-03-29T00:09:28;99473.03;;;8.07;78.81
84944;BME280;75231;53.650;9.788;2024-03-29T00:11:54;99479.84;;;8.08;78.42
84944;BME280;75231;53.650;9.788;2024-03-29T00:14:19;99463.44;;;8.09;78.48
84944;BME280;75231;53.650;9.788;2024-03-29T00:16:44;99464.06;;;8.12;78.43
84944;BME280;75231;53.650;9.788;2024-03-29T00:19:09;99468.00;;;8.05;78.58
84944;BME280;75231;53.650;9.788;2024-03-29T00:21:34;99469.78;;;8.05;78.48
84944;BME280;75231;53.650;9.788;2024-03-29T00:24:01;99466.50;;;8.03;78.66
84944;BME280;75231;53.650;9.788;2024-03-29T00:26:26;99462.72;;;7.96;78.38
84944;BME280;75231;53.650;9.788;2024-03-29T00:28:51;99459.66;;;7.91;78.26
84944;BME280;75231;53.650;9.788;2024-03-29T00:31:16;99461.66;;;7.87;78.64
84944;BME280;75231;53.650;9.788;2024-03-29T00:33:42;99462.94;;;7.93;78.85
84944;BME280;75231;53.650;9.788;2024-03-29T00:36:08;99451.00;;;7.92;78.62
84944;BME280;75231;53.650;9.788;2024-03-29T00:38:33;99467.06;;;7.95;78.32
84944;BME280;75231;53.650;9.788;2024-03-29T00:40:58;99460.09;;;7.84;79.51
84944;BME280;75231;53.650;9.788;2024-03-29T00:43:23;99463.84;;;7.80;79.06
84944;BME280;75231;53.650;9.788;2024-03-29T00:45:48;99470.75;;;7.80;78.73
84944;BME280;75231;53.650;9.788;2024-03-29T00:48:14;99468.38;;;7.77;78.76
84944;BME280;75231;53.650;9.788;2024-03-29T00:50:40;99463.22;;;7.77;79.27
84944;BME280;75231;53.650;9.788;2024-03-29T00:53:06;99462.63;;;7.73;79.23
84944;BME280;75231;53.650;9.788;2024-03-29T00:55:31;99469.00;;;7.80;78.81
84944;BME280;75231;53.650;9.788;2024-03-29T00:57:56;99469.47;;;7.85;78.26
84944;BME280;75231;53.650;9.788;2024-03-29T01:00:22;99484.09;;;7.85;78.09
84944;BME280;75231;53.650;9.788;2024-03-29T01:02:47;99478.22;;;7.83;78.25
84944;BME280;75231;53.650;9.788;2024-03-29T01:05:12;99478.94;;;7.85;77.83
84944;BME280;75231;53.650;9.788;2024-03-29T01:07:40;99475.78;;;7.81;78.54
84944;BME280;75231;53.650;9.788;2024-03-29T01:10:06;99473.75;;;7.74;78.58
84944;BME280;75231;53.650;9.788;2024-03-29T01:12:33;99470.91;;;7.66;79.13
84944;BME280;75231;53.650;9.788;2024-03-29T01:14:59;99470.31;;;7.62;78.50
84944;BME280;75231;53.650;9.788;2024-03-29T01:17:24;99482.84;;;7.67;79.19
84944;BME280;75231;53.650;9.788;2024-03-29T01:19:49;99481.16;;;7.54;79.36
84944;BME280;75231;53.650;9.788;2024-03-29T01:22:14;99480.78;;;7.48;79.50
84944;BME280;75231;53.650;9.788;2024-03-29T01:24:40;99452.94;;;7.29;79.74
84944;BME280;75231;53.650;9.788;2024-03-29T01:27:05;99472.44;;;7.44;79.57
84944;BME280;75231;53.650;9.788;2024-03-29T01:29:31;99470.81;;;7.43;80.37
84944;BME280;75231;53.650;9.788;2024-03-29T01:31:57;99467.94;;;7.35;80.48
84944;BME280;75231;53.650;9.788;2024-03-29T01:34:22;99477.81;;;7.41;79.95
84944;BME280;75231;53.650;9.788;2024-03-29T01:36:47;99475.91;;;7.32;80.03
84944;BME280;75231;53.650;9.788;2024-03-29T01:39:13;99487.31;;;7.28;81.03
84944;BME280;75231;53.650;9.788;2024-03-29T01:41:40;99477.09;;;7.15;80.82
84944;BME280;75231;53.650;9.788;2024-03-29T01:44:06;99481.94;;;7.07;81.33
84944;BME280;75231;53.650;9.788;2024-03-29T01:46:31;99487.25;;;7.17;80.57
84944;BME280;75231;53.650;9.788;2024-03-29T01:48:59;99488.59;;;7.22;80.61
84944;BME280;75231;53.650;9.788;2024-03-29T01:51:25;99480.94;;;7.21;80.14
84944;BME280;75231;53.650;9.788;2024-03-29T01:53:50;99489.41;;;7.23;80.51
84944;BME280;75231;53.650;9.788;2024-03-29T01:56:17;99478.00;;;7.14;80.13
84944;BME280;75231;53.650;9.788;2024-03-29T01:58:44;99473.41;;;7.07;80.01
84944;BME280;75231;53.650;9.788;2024-03-29T02:01:10;99474.69;;;7.12;80.24
84944;BME280;75231;53.650;9.788;2024-03-29T02:03:36;99479.00;;;7.24;79.59
84944;BME280;75231;53.650;9.788;2024-03-29T02:06:02;99484.53;;;7.31;79.55
84944;BME280;75231;53.650;9.788;2024-03-29T02:08:28;99470.06;;;7.17;79.69
84944;BME280;75231;53.650;9.788;2024-03-29T02:10:53;99487.13;;;7.31;79.41
84944;BME280;75231;53.650;9.788;2024-03-29T02:13:18;99486.50;;;7.27;79.42
84944;BME280;75231;53.650;9.788;2024-03-29T02:15:44;99482.16;;;7.28;79.04
84944;BME280;75231;53.650;9.788;2024-03-29T02:18:09;99488.78;;;7.19;79.27
84944;BME280;75231;53.650;9.788;2024-03-29T02:20:34;99488.34;;;7.25;79.52
84944;BME280;75231;53.650;9.788;2024-03-29T02:23:13;99486.31;;;7.18;79.58
84944;BME280;75231;53.650;9.788;2024-03-29T02:25:39;99494.56;;;7.10;80.35
84944;BME280;75231;53.650;9.788;2024-03-29T02:28:04;99498.19;;;7.08;80.48
84944;BME280;75231;53.650;9.788;2024-03-29T02:30:30;99497.16;;;6.97;80.22
84944;BME280;75231;53.650;9.788;2024-03-29T02:32:57;99503.03;;;6.99;80.36
84944;BME280;75231;53.650;9.788;2024-03-29T02:35:22;99501.69;;;7.07;79.84
84944;BME280;75231;53.650;9.788;2024-03-29T02:37:47;99509.78;;;7.13;80.07
84944;BME280;75231;53.650;9.788;2024-03-29T02:40:12;99492.09;;;7.09;79.50
84944;BME280;75231;53.650;9.788;2024-03-29T02:42:38;99503.09;;;7.11;80.34
84944;BME280;75231;53.650;9.788;2024-03-29T02:45:03;99501.59;;;6.95;80.64
84944;BME280;75231;53.650;9.788;2024-03-29T02:47:29;99512.88;;;7.06;79.92
84944;BME280;75231;53.650;9.788;2024-03-29T02:49:54;99519.78;;;7.05;79.71
84944;BME280;75231;53.650;9.788;2024-03-29T02:52:19;99511.44;;;7.14;79.30
84944;BME280;75231;53.650;9.788;2024-03-29T02:54:45;99494.69;;;7.09;79.64
84944;BME280;75231;53.650;9.788;2024-03-29T02:57:10;99503.53;;;7.05;79.86
84944;BME280;75231;53.650;9.788;2024-03-29T02:59:35;99497.91;;;6.99;79.70
84944;BME280;75231;53.650;9.788;2024-03-29T03:02:01;99501.41;;;6.98;79.91
84944;BME280;75231;53.650;9.788;2024-03-29T03:04:28;99502.22;;;6.86;80.77
84944;BME280;75231;53.650;9.788;2024-03-29T03:06:54;99485.56;;;6.79;80.63
84944;BME280;75231;53.650;9.788;2024-03-29T03:09:21;99484.16;;;6.75;81.00
84944;BME280;75231;53.650;9.788;2024-03-29T03:12:05;99482.50;;;6.74;81.42
84944;BME280;75231;53.650;9.788;2024-03-29T03:14:30;99488.66;;;6.71;81.29
84944;BME280;75231;53.650;9.788;2024-03-29T03:16:55;99487.53;;;6.76;81.14
84944;BME280;75231;53.650;9.788;2024-03-29T03:19:21;99475.63;;;6.75;80.89
84944;BME280;75231;53.650;9.788;2024-03-29T03:21:46;99468.50;;;6.78;81.55
84944;BME280;75231;53.650;9.788;2024-03-29T03:24:12;99471.78;;;6.80;81.03
84944;BME280;75231;53.650;9.788;2024-03-29T03:26:38;99467.69;;;6.78;81.38
84944;BME280;75231;53.650;9.788;2024-03-29T03:29:03;99454.72;;;6.79;80.84
84944;BME280;75231;53.650;9.788;2024-03-29T03:31:28;99451.63;;;6.87;80.80
84944;BME280;75231;53.650;9.788;2024-03-29T03:33:54;99454.53;;;6.82;80.57
84944;BME280;75231;53.650;9.788;2024-03-29T03:36:19;99462.84;;;6.86;80.98
84944;BME280;75231;53.650;9.788;2024-03-29T03:38:44;99459.03;;;6.79;80.89
84944;BME280;75231;53.650;9.788;2024-03-29T03:41:09;99468.19;;;6.83;81.36
84944;BME280;75231;53.650;9.788;2024-03-29T03:43:35;99463.88;;;6.70;81.11
84944;BME280;75231;53.650;9.788;2024-03-29T03:46:00;99479.50;;;6.80;80.86
84944;BME280;75231;53.650;9.788;2024-03-29T03:48:26;99487.44;;;6.77;80.44
84944;BME280;75231;53.650;9.788;2024-03-29T03:50:51;99492.03;;;6.85;80.73
84944;BME280;75231;53.650;9.788;2024-03-29T03:53:16;99493.97;;;6.81;80.74
84944;BME280;75231;53.650;9.788;2024-03-29T03:55:41;99502.94;;;6.88;80.00
84944;BME280;75231;53.650;9.788;2024-03-29T03:58:07;99502.00;;;6.89;80.27
84944;BME280;75231;53.650;9.788;2024-03-29T04:00:32;99508.38;;;6.96;80.10
84944;BME280;75231;53.650;9.788;2024-03-29T04:02:58;99496.84;;;6.89;80.06
84944;BME280;75231;53.650;9.788;2024-03-29T04:05:23;99497.78;;;6.88;80.09
84944;BME280;75231;53.650;9.788;2024-03-29T04:07:50;99496.25;;;6.86;80.07
84944;BME280;75231;53.650;9.788;2024-03-29T04:10:15;99488.03;;;6.81;79.29
84944;BME280;75231;53.650;9.788;2024-03-29T04:12:40;99508.59;;;6.93;79.89
84944;BME280;75231;53.650;9.788;2024-03-29T04:15:06;99502.63;;;6.93;79.61
84944;BME280;75231;53.650;9.788;2024-03-29T04:17:32;99496.84;;;6.89;79.55
84944;BME280;75231;53.650;9.788;2024-03-29T04:19:58;99504.97;;;6.96;79.12
84944;BME280;75231;53.650;9.788;2024-03-29T04:22:24;99511.69;;;6.98;79.09
84944;BME280;75231;53.650;9.788;2024-03-29T04:24:50;99500.25;;;7.03;79.08
84944;BME280;75231;53.650;9.788;2024-03-29T04:27:15;99488.53;;;6.98;79.44
84944;BME280;75231;53.650;9.788;2024-03-29T04:29:41;99481.72;;;6.97;79.54
84944;BME280;75231;53.650;9.788;2024-03-29T04:32:07;99490.69;;;6.92;79.15
84944;BME280;75231;53.650;9.788;2024-03-29T04:34:33;99495.44;;;6.98;79.64
84944;BME280;75231;53.650;9.788;2024-03-29T04:36:58;99484.00;;;6.89;78.88
84944;BME280;75231;53.650;9.788;2024-03-29T04:39:23;99492.34;;;6.93;79.90
84944;BME280;75231;53.650;9.788;2024-03-29T04:41:48;99480.31;;;6.93;79.14
84944;BME280;75231;53.650;9.788;2024-03-29T04:44:22;99478.44;;;6.95;79.56
84944;BME280;75231;53.650;9.788;2024-03-29T04:46:49;99476.09;;;6.92;78.91
84944;BME280;75231;53.650;9.788;2024-03-29T04:49:15;99484.50;;;7.07;78.74
84944;BME280;75231;53.650;9.788;2024-03-29T04:51:42;99489.19;;;7.13;79.20
84944;BME280;75231;53.650;9.788;2024-03-29T04:54:10;99501.44;;;7.22;77.69
84944;BME280;75231;53.650;9.788;2024-03-29T04:56:35;99505.53;;;7.25;77.73
84944;BME280;75231;53.650;9.788;2024-03-29T04:59:01;99505.13;;;7.31;78.24
84944;BME280;75231;53.650;9.788;2024-03-29T05:01:27;99499.25;;;7.29;78.99
84944;BME280;75231;53.650;9.788;2024-03-29T05:03:52;99508.19;;;7.36;77.33
84944;BME280;75231;53.650;9.788;2024-03-29T05:06:18;99517.34;;;7.40;77.92
84944;BME280;75231;53.650;9.788;2024-03-29T05:08:46;99516.53;;;7.40;77.11
84944;BME280;75231;53.650;9.788;2024-03-29T05:11:11;99527.03;;;7.61;75.90
84944;BME280;75231;53.650;9.788;2024-03-29T05:13:42;99505.97;;;7.55;77.02
84944;BME280;75231;53.650;9.788;2024-03-29T05:16:07;99502.22;;;7.60;76.55
84944;BME280;75231;53.650;9.788;2024-03-29T05:18:34;99514.16;;;7.61;76.84
84944;BME280;75231;53.650;9.788;2024-03-29T05:20:59;99516.25;;;7.55;76.45
84944;BME280;75231;53.650;9.788;2024-03-29T05:23:25;99527.31;;;7.69;74.95
84944;BME280;75231;53.650;9.788;2024-03-29T05:25:50;99521.72;;;7.75;75.28
84944;BME280;75231;53.650;9.788;2024-03-29T05:28:17;99528.31;;;7.79;75.01
84944;BME280;75231;53.650;9.788;2024-03-29T05:30:43;99527.03;;;7.84;75.72
84944;BME280;75231;53.650;9.788;2024-03-29T05:33:08;99531.47;;;7.82;74.24
84944;BME280;75231;53.650;9.788;2024-03-29T05:35:33;99534.56;;;7.88;74.58
84944;BME280;75231;53.650;9.788;2024-03-29T05:37:59;99545.72;;;7.99;74.52
84944;BME280;75231;53.650;9.788;2024-03-29T05:40:24;99541.50;;;7.98;74.39
84944;BME280;75231;53.650;9.788;2024-03-29T05:42:55;99550.66;;;8.02;74.06
84944;BME280;75231;53.650;9.788;2024-03-29T05:45:30;99549.25;;;8.09;74.14
84944;BME280;75231;53.650;9.788;2024-03-29T05:47:57;99533.94;;;8.08;73.90
84944;BME280;75231;53.650;9.788;2024-03-29T05:50:24;99541.66;;;8.08;73.82
84944;BME280;75231;53.650;9.788;2024-03-29T05:52:50;99555.63;;;8.17;72.79
84944;BME280;75231;53.650;9.788;2024-03-29T05:55:15;99553.97;;;8.16;72.50
84944;BME280;75231;53.650;9.788;2024-03-29T05:57:41;99558.72;;;8.33;73.37
84944;BME280;75231;53.650;9.788;2024-03-29T06:00:07;99553.78;;;8.30;72.43
84944;BME280;75231;53.650;9.788;2024-03-29T06:02:34;99556.13;;;8.33;73.21
84944;BME280;75231;53.650;9.788;2024-03-29T06:05:00;99558.31;;;8.39;71.96
84944;BME280;75231;53.650;9.788;2024-03-29T06:07:26;99561.00;;;8.37;72.46
84944;BME280;75231;53.650;9.788;2024-03-29T06:09:54;99551.38;;;8.39;73.13
84944;BME280;75231;53.650;9.788;2024-03-29T06:12:19;99552.91;;;8.42;72.69
84944;BME280;75231;53.650;9.788;2024-03-29T06:14:44;99580.00;;;8.48;72.58
84944;BME280;75231;53.650;9.788;2024-03-29T06:17:29;99570.75;;;8.45;72.41
84944;BME280;75231;53.650;9.788;2024-03-29T06:19:55;99560.44;;;8.45;72.13
84944;BME280;75231;53.650;9.788;2024-03-29T06:22:25;99576.53;;;8.60;71.80
84944;BME280;75231;53.650;9.788;2024-03-29T06:24:51;99577.59;;;8.68;71.60
84944;BME280;75231;53.650;9.788;2024-03-29T06:27:17;99572.91;;;8.62;72.56
84944;BME280;75231;53.650;9.788;2024-03-29T06:29:44;99590.50;;;8.68;71.64
84944;BME280;75231;53.650;9.788;2024-03-29T06:32:10;99583.22;;;8.74;71.69
84944;BME280;75231;53.650;9.788;2024-03-29T06:34:35;99577.00;;;8.65;71.10
84944;BME280;75231;53.650;9.788;2024-03-29T06:37:01;99588.38;;;8.74;71.24
84944;BME280;75231;53.650;9.788;2024-03-29T06:39:30;99582.06;;;8.78;71.08
84944;BME280;75231;53.650;9.788;2024-03-29T06:41:55;99589.34;;;8.84;72.16
84944;BME280;75231;53.650;9.788;2024-03-29T06:44:20;99587.72;;;8.83;72.34
84944;BME280;75231;53.650;9.788;2024-03-29T06:46:46;99583.50;;;8.93;71.71
84944;BME280;75231;53.650;9.788;2024-03-29T06:49:11;99572.56;;;8.89;71.13
84944;BME280;75231;53.650;9.788;2024-03-29T06:51:39;99585.72;;;8.97;71.35
84944;BME280;75231;53.650;9.788;2024-03-29T06:54:05;99590.41;;;9.04;70.13
84944;BME280;75231;53.650;9.788;2024-03-29T06:56:30;99592.41;;;9.11;70.09
84944;BME280;75231;53.650;9.788;2024-03-29T06:58:56;99585.38;;;9.13;70.72
84944;BME280;75231;53.650;9.788;2024-03-29T07:01:21;99585.50;;;9.12;70.12
84944;BME280;75231;53.650;9.788;2024-03-29T07:03:46;99597.94;;;9.18;69.96
84944;BME280;75231;53.650;9.788;2024-03-29T07:06:12;99599.47;;;9.20;70.55
84944;BME280;75231;53.650;9.788;2024-03-29T07:08:37;99594.28;;;9.20;70.86
84944;BME280;75231;53.650;9.788;2024-03-29T07:11:03;99602.84;;;9.21;69.90
84944;BME280;75231;53.650;9.788;2024-03-29T07:13:29;99608.72;;;9.34;69.86
84944;BME280;75231;53.650;9.788;2024-03-29T07:15:57;99616.13;;;9.39;70.23
84944;BME280;75231;53.650;9.788;2024-03-29T07:18:22;99611.41;;;9.44;69.65
84944;BME280;75231;53.650;9.788;2024-03-29T07:20:47;99620.34;;;9.51;69.93
84944;BME280;75231;53.650;9.788;2024-03-29T07:23:13;99613.53;;;9.50;68.09
84944;BME280;75231;53.650;9.788;2024-03-29T07:25:39;99610.63;;;9.55;68.23
84944;BME280;75231;53.650;9.788;2024-03-29T07:28:05;99620.22;;;9.64;68.97
84944;BME280;75231;53.650;9.788;2024-03-29T07:30:30;99627.84;;;9.65;69.16
84944;BME280;75231;53.650;9.788;2024-03-29T07:32:55;99617.03;;;9.71;68.83
84944;BME280;75231;53.650;9.788;2024-03-29T07:35:24;99624.53;;;9.74;68.68
84944;BME280;75231;53.650;9.788;2024-03-29T07:37:49;99637.81;;;9.81;67.70
84944;BME280;75231;53.650;9.788;2024-03-29T07:40:16;99637.69;;;9.82;68.37
84944;BME280;75231;53.650;9.788;2024-03-29T07:42:41;99655.84;;;9.92;68.33
84944;BME280;75231;53.650;9.788;2024-03-29T07:45:07;99651.50;;;9.93;68.02
84944;BME280;75231;53.650;9.788;2024-03-29T07:47:32;99657.63;;;10.03;68.17
84944;BME280;75231;53.650;9.788;2024-03-29T07:49:58;99652.19;;;10.06;68.45
84944;BME280;75231;53.650;9.788;2024-03-29T07:52:23;99659.69;;;10.09;67.94
84944;BME280;75231;53.650;9.788;2024-03-29T07:54:49;99665.09;;;10.17;67.55
84944;BME280;75231;53.650;9.788;2024-03-29T07:57:14;99672.13;;;10.15;67.31
84944;BME280;75231;53.650;9.788;2024-03-29T07:59:41;99669.22;;;10.20;67.17
84944;BME280;75231;53.650;9.788;2024-03-29T08:02:07;99670.50;;;10.14;67.58
84944;BME280;75231;53.650;9.788;2024-03-29T08:04:32;99673.22;;;10.24;67.35
84944;BME280;75231;53.650;9.788;2024-03-29T08:06:57;99679.41;;;10.32;67.72
84944;BME280;75231;53.650;9.788;2024-03-29T08:09:22;99683.28;;;10.38;66.72
84944;BME280;75231;53.650;9.788;2024-03-29T08:11:48;99677.97;;;10.51;66.70
84944;BME280;75231;53.650;9.788;2024-03-29T08:14:13;99676.06;;;10.53;66.87
84944;BME280;75231;53.650;9.788;2024-03-29T08:16:38;99687.22;;;10.53;67.85
84944;BME280;75231;53.650;9.788;2024-03-29T08:19:04;99695.53;;;10.57;67.24
84944;BME280;75231;53.650;9.788;2024-03-29T08:21:29;99690.75;;;10.52;67.17
84944;BME280;75231;53.650;9.788;2024-03-29T08:23:55;99701.31;;;10.60;68.23
84944;BME280;75231;53.650;9.788;2024-03-29T08:26:22;99678.16;;;10.59;67.84
84944;BME280;75231;53.650;9.788;2024-03-29T08:28:47;99669.66;;;10.68;66.71
84944;BME280;75231;53.650;9.788;2024-03-29T08:31:13;99665.50;;;10.77;67.64
84944;BME280;75231;53.650;9.788;2024-03-29T08:33:38;99669.22;;;10.84;67.32
84944;BME280;75231;53.650;9.788;2024-03-29T08:36:07;99657.09;;;10.84;67.44
84944;BME280;75231;53.650;9.788;2024-03-29T08:38:33;99656.47;;;10.92;67.63
84944;BME280;75231;53.650;9.788;2024-03-29T08:40:59;99643.09;;;10.87;67.65
84944;BME280;75231;53.650;9.788;2024-03-29T08:43:24;99642.91;;;11.00;67.47
84944;BME280;75231;53.650;9.788;2024-03-29T08:45:50;99647.03;;;11.12;68.23
84944;BME280;75231;53.650;9.788;2024-03-29T08:48:15;99635.41;;;11.27;66.74
84944;BME280;75231;53.650;9.788;2024-03-29T08:50:41;99638.06;;;11.46;67.05
84944;BME280;75231;53.650;9.788;2024-03-29T08:53:06;99635.53;;;11.56;66.92
84944;BME280;75231;53.650;9.788;2024-03-29T08:55:33;99624.94;;;11.69;65.78
84944;BME280;75231;53.650;9.788;2024-03-29T08:57:59;99617.28;;;11.67;65.25
84944;BME280;75231;53.650;9.788;2024-03-29T09:00:28;99623.56;;;11.65;66.02
84944;BME280;75231;53.650;9.788;2024-03-29T09:02:54;99621.66;;;11.67;65.50
84944;BME280;75231;53.650;9.788;2024-03-29T09:05:21;99632.31;;;11.73;66.74
84944;BME280;75231;53.650;9.788;2024-03-29T09:07:47;99638.56;;;11.71;66.10
84944;BME280;75231;53.650;9.788;2024-03-29T09:10:13;99633.94;;;11.65;66.25
84944;BME280;75231;53.650;9.788;2024-03-29T09:12:38;99642.69;;;11.73;66.35
84944;BME280;75231;53.650;9.788;2024-03-29T09:15:05;99630.31;;;11.87;66.80
84944;BME280;75231;53.650;9.788;2024-03-29T09:17:39;99627.88;;;11.95;66.65
84944;BME280;75231;53.650;9.788;2024-03-29T09:20:05;99613.41;;;11.92;66.08
84944;BME280;75231;53.650;9.788;2024-03-29T09:22:30;99608.66;;;11.97;66.88
84944;BME280;75231;53.650;9.788;2024-03-29T09:24:55;99619.44;;;12.02;66.66
84944;BME280;75231;53.650;9.788;2024-03-29T09:27:21;99634.59;;;12.07;67.13
84944;BME280;75231;53.650;9.788;2024-03-29T09:29:49;99619.47;;;12.12;66.19
84944;BME280;75231;53.650;9.788;2024-03-29T09:32:18;99603.47;;;12.07;66.02
84944;BME280;75231;53.650;9.788;2024-03-29T09:34:45;99620.13;;;12.04;66.26
84944;BME280;75231;53.650;9.788;2024-03-29T09:37:11;99622.44;;;11.98;67.28
84944;BME280;75231;53.650;9.788;2024-03-29T09:39:36;99614.38;;;11.82;67.04
84944;BME280;75231;53.650;9.788;2024-03-29T09:42:02;99616.19;;;11.70;67.28
84944;BME280;75231;53.650;9.788;2024-03-29T09:44:31;99610.44;;;11.57;67.85
84944;BME280;75231;53.650;9.788;2024-03-29T09:46:59;99614.50;;;11.49;68.08
84944;BME280;75231;53.650;9.788;2024-03-29T09:49:27;99610.94;;;11.41;68.80
84944;BME280;75231;53.650;9.788;2024-03-29T09:51:54;99615.53;;;11.37;69.41
84944;BME280;75231;53.650;9.788;2024-03-29T09:54:19;99622.63;;;11.35;70.03
84944;BME280;75231;53.650;9.788;2024-03-29T09:56:45;99622.28;;;11.19;69.55
84944;BME280;75231;53.650;9.788;2024-03-29T09:59:10;99615.16;;;11.11;69.62
84944;BME280;75231;53.650;9.788;2024-03-29T10:01:36;99595.53;;;11.09;70.42
84944;BME280;75231;53.650;9.788;2024-03-29T10:04:02;99608.22;;;11.12;71.10
84944;BME280;75231;53.650;9.788;2024-03-29T10:06:34;99591.69;;;11.03;71.25
84944;BME280;75231;53.650;9.788;2024-03-29T10:09:00;99588.59;;;11.09;70.49
84944;BME280;75231;53.650;9.788;2024-03-29T10:11:25;99577.31;;;11.20;71.00
84944;BME280;75231;53.650;9.788;2024-03-29T10:13:51;99588.84;;;11.37;70.85
84944;BME280;75231;53.650;9.788;2024-03-29T10:16:20;99596.47;;;11.38;71.35
84944;BME280;75231;53.650;9.788;2024-03-29T10:18:49;99596.47;;;11.38;71.48
84944;BME280;75231;53.650;9.788;2024-03-29T10:21:15;99577.56;;;11.47;70.37
84944;BME280;75231;53.650;9.788;2024-03-29T10:23:40;99587.13;;;11.57;70.87
84944;BME280;75231;53.650;9.788;2024-03-29T10:26:06;99586.88;;;11.69;70.30
84944;BME280;75231;53.650;9.788;2024-03-29T10:28:36;99589.00;;;11.95;70.24
84944;BME280;75231;53.650;9.788;2024-03-29T10:31:03;99586.00;;;11.99;69.78
84944;BME280;75231;53.650;9.788;2024-03-29T10:33:29;99582.22;;;12.13;69.42
84944;BME280;75231;53.650;9.788;2024-03-29T10:35:55;99573.19;;;12.08;69.61
84944;BME280;75231;53.650;9.788;2024-03-29T10:38:22;99566.38;;;12.16;69.03
84944;BME280;75231;53.650;9.788;2024-03-29T10:40:48;99569.91;;;12.25;68.83
84944;BME280;75231;53.650;9.788;2024-03-29T10:43:14;99577.69;;;12.35;69.71
84944;BME280;75231;53.650;9.788;2024-03-29T10:45:42;99576.72;;;12.26;68.62
84944;BME280;75231;53.650;9.788;2024-03-29T10:48:09;99585.72;;;12.02;69.05
84944;BME280;75231;53.650;9.788;2024-03-29T10:50:38;99574.16;;;11.87;69.73
84944;BME280;75231;53.650;9.788;2024-03-29T10:53:06;99575.06;;;11.86;70.35
84944;BME280;75231;53.650;9.788;2024-03-29T10:55:35;99581.03;;;11.77;70.94
84944;BME280;75231;53.650;9.788;2024-03-29T10:58:06;99583.66;;;11.87;70.51
84944;BME280;75231;53.650;9.788;2024-03-29T11:00:38;99566.31;;;11.77;70.34
84944;BME280;75231;53.650;9.788;2024-03-29T11:03:13;99558.69;;;11.86;70.28
84944;BME280;75231;53.650;9.788;2024-03-29T11:05:46;99573.88;;;12.00;69.78
84944;BME280;75231;53.650;9.788;2024-03-29T11:08:14;99560.38;;;11.96;69.69
84944;BME280;75231;53.650;9.788;2024-03-29T11:10:44;99578.94;;;12.11;70.56
84944;BME280;75231;53.650;9.788;2024-03-29T11:15:56;99586.16;;;12.08;69.69
84944;BME280;75231;53.650;9.788;2024-03-29T11:18:22;99576.22;;;12.13;70.82
84944;BME280;75231;53.650;9.788;2024-03-29T11:20:57;99596.66;;;12.16;70.28
84944;BME280;75231;53.650;9.788;2024-03-29T11:23:23;99588.88;;;12.06;71.03
84944;BME280;75231;53.650;9.788;2024-03-29T11:25:51;99590.91;;;12.02;69.86
84944;BME280;75231;53.650;9.788;2024-03-29T11:28:37;99595.41;;;12.00;70.65
84944;BME280;75231;53.650;9.788;2024-03-29T11:31:05;99596.78;;;11.95;70.73
84944;BME280;75231;53.650;9.788;2024-03-29T11:38:38;99614.53;;;11.99;71.47
84944;BME280;75231;53.650;9.788;2024-03-29T11:41:13;99618.50;;;12.03;71.89
84944;BME280;75231;53.650;9.788;2024-03-29T11:43:39;99607.72;;;12.18;70.74
84944;BME280;75231;53.650;9.788;2024-03-29T11:46:09;99604.56;;;12.33;71.48
84944;BME280;75231;53.650;9.788;2024-03-29T11:48:36;99599.53;;;12.51;70.23
84944;BME280;75231;53.650;9.788;2024-03-29T11:51:03;99592.66;;;12.79;70.43
84944;BME280;75231;53.650;9.788;2024-03-29T11:53:30;99587.75;;;13.23;69.13
84944;BME280;75231;53.650;9.788;2024-03-29T11:55:59;99582.25;;;13.36;68.04
84944;BME280;75231;53.650;9.788;2024-03-29T11:58:26;99570.81;;;13.56;67.13
84944;BME280;75231;53.650;9.788;2024-03-29T12:00:52;99573.84;;;13.69;66.71
84944;BME280;75231;53.650;9.788;2024-03-29T12:03:19;99585.75;;;13.72;65.67
84944;BME280;75231;53.650;9.788;2024-03-29T12:05:49;99589.28;;;13.71;66.30
84944;BME280;75231;53.650;9.788;2024-03-29T12:08:16;99601.72;;;13.77;66.17
84944;BME280;75231;53.650;9.788;2024-03-29T12:10:41;99587.16;;;13.84;65.89
84944;BME280;75231;53.650;9.788;2024-03-29T12:13:07;99593.69;;;13.70;66.44
84944;BME280;75231;53.650;9.788;2024-03-29T12:15:34;99588.28;;;13.82;66.13
84944;BME280;75231;53.650;9.788;2024-03-29T12:18:05;99587.25;;;13.92;65.96
84944;BME280;75231;53.650;9.788;2024-03-29T12:20:32;99598.19;;;13.96;65.52
84944;BME280;75231;53.650;9.788;2024-03-29T12:23:01;99591.78;;;14.08;65.53
84944;BME280;75231;53.650;9.788;2024-03-29T12:25:31;99588.59;;;14.14;65.43
84944;BME280;75231;53.650;9.788;2024-03-29T12:27:58;99584.13;;;14.24;65.30
84944;BME280;75231;53.650;9.788;2024-03-29T12:30:24;99590.38;;;14.32;64.75
84944;BME280;75231;53.650;9.788;2024-03-29T12:33:11;99586.53;;;14.36;65.17
84944;BME280;75231;53.650;9.788;2024-03-29T12:35:37;99592.09;;;14.23;64.49
84944;BME280;75231;53.650;9.788;2024-03-29T12:38:04;99603.47;;;14.22;65.22
84944;BME280;75231;53.650;9.788;2024-03-29T12:40:31;99605.75;;;14.25;66.24
84944;BME280;75231;53.650;9.788;2024-03-29T12:43:12;99601.00;;;14.38;65.32
84944;BME280;75231;53.650;9.788;2024-03-29T12:45:39;99607.34;;;14.36;65.08
84944;BME280;75231;53.650;9.788;2024-03-29T12:48:21;99606.88;;;14.40;64.25
84944;BME280;75231;53.650;9.788;2024-03-29T12:50:48;99611.09;;;14.41;64.04
84944;BME280;75231;53.650;9.788;2024-03-29T12:53:15;99602.41;;;14.33;64.79
84944;BME280;75231;53.650;9.788;2024-03-29T12:55:42;99588.16;;;14.37;66.17
84944;BME280;75231;53.650;9.788;2024-03-29T12:58:11;99591.50;;;14.47;65.39
84944;BME280;75231;53.650;9.788;2024-03-29T13:00:38;99586.47;;;14.71;65.07
84944;BME280;75231;53.650;9.788;2024-03-29T13:03:04;99608.59;;;14.49;63.95
84944;BME280;75231;53.650;9.788;2024-03-29T13:05:30;99615.22;;;14.44;65.94
84944;BME280;75231;53.650;9.788;2024-03-29T13:08:02;99623.41;;;14.49;64.13
84944;BME280;75231;53.650;9.788;2024-03-29T13:10:29;99630.63;;;14.55;64.36
84944;BME280;75231;53.650;9.788;2024-03-29T13:12:54;99624.13;;;14.59;64.56